createdAt,value
2017-09-14T00:00:09.794Z,996.79
2017-09-14T00:01:18.638Z,996.73
2017-09-14T00:02:27.489Z,996.85
2017-09-14T00:03:36.331Z,996.73
2017-09-14T00:04:45.179Z,996.85
2017-09-14T00:05:54.352Z,996.81
2017-09-14T00:07:03.196Z,996.81
2017-09-14T00:08:12.040Z,996.79
2017-09-14T00:09:20.883Z,996.82
2017-09-14T00:10:29.734Z,996.82
2017-09-14T00:11:38.727Z,996.78
2017-09-14T00:12:47.570Z,996.8
2017-09-14T00:13:56.419Z,996.82
2017-09-14T00:15:05.256Z,996.76
2017-09-14T00:16:14.099Z,996.78
2017-09-14T00:17:23.093Z,996.8
2017-09-14T00:18:31.935Z,996.77
2017-09-14T00:19:40.777Z,996.81
2017-09-14T00:20:49.621Z,996.83
2017-09-14T00:21:58.473Z,996.83
2017-09-14T00:23:07.466Z,996.84
2017-09-14T00:24:16.308Z,996.82
2017-09-14T00:25:25.151Z,996.84
2017-09-14T00:26:33.995Z,996.83
2017-09-14T00:27:42.838Z,996.82
2017-09-14T00:28:51.782Z,996.77
2017-09-14T00:30:00.626Z,996.78
2017-09-14T00:31:09.467Z,996.85
2017-09-14T00:32:18.645Z,996.83
2017-09-14T00:33:27.492Z,996.83
2017-09-14T00:34:36.387Z,996.78
2017-09-14T00:35:45.226Z,996.81
2017-09-14T00:36:54.068Z,996.79
2017-09-14T00:38:02.911Z,996.74
2017-09-14T00:39:11.755Z,996.75
2017-09-14T00:40:20.750Z,996.77
2017-09-14T00:41:29.924Z,996.75
2017-09-14T00:42:38.768Z,996.78
2017-09-14T00:43:47.610Z,996.78
2017-09-14T00:44:56.454Z,996.74
2017-09-14T00:46:05.445Z,996.73
2017-09-14T00:47:14.291Z,996.81
2017-09-14T00:48:23.137Z,996.76
2017-09-14T00:49:31.977Z,996.66
2017-09-14T00:50:40.818Z,996.69
2017-09-14T00:51:49.962Z,996.66
2017-09-14T00:52:58.805Z,996.7
2017-09-14T00:54:07.651Z,996.71
2017-09-14T00:55:16.493Z,996.71
2017-09-14T00:56:25.333Z,996.68
2017-09-14T00:57:34.329Z,996.63
2017-09-14T00:58:43.172Z,996.66
2017-09-14T00:59:52.016Z,996.67
2017-09-14T01:01:00.856Z,996.72
2017-09-14T01:02:09.698Z,996.68
2017-09-14T01:03:18.638Z,996.63
2017-09-14T01:04:27.481Z,996.72
2017-09-14T01:05:36.322Z,996.72
2017-09-14T01:06:45.162Z,996.7
2017-09-14T01:07:54.006Z,996.73
2017-09-14T01:09:02.951Z,996.75
2017-09-14T01:10:11.796Z,996.67
2017-09-14T01:11:20.639Z,996.67
2017-09-14T01:12:29.480Z,996.66
2017-09-14T01:13:38.324Z,996.69
2017-09-14T01:14:47.166Z,996.7
2017-09-14T01:15:56.007Z,996.7
2017-09-14T01:17:04.857Z,996.71
2017-09-14T01:18:13.697Z,996.68
2017-09-14T01:19:22.543Z,996.68
2017-09-14T01:20:31.580Z,996.66
2017-09-14T01:21:40.421Z,996.69
2017-09-14T01:22:49.270Z,996.75
2017-09-14T01:23:58.107Z,996.74
2017-09-14T01:25:07.281Z,996.73
2017-09-14T01:26:16.272Z,996.73
2017-09-14T01:27:25.112Z,996.72
2017-09-14T01:28:33.953Z,996.73
2017-09-14T01:29:42.795Z,996.74
2017-09-14T01:30:51.638Z,996.74
2017-09-14T01:32:00.779Z,996.68
2017-09-14T01:33:09.621Z,996.69
2017-09-14T01:34:18.467Z,996.69
2017-09-14T01:35:27.301Z,996.67
2017-09-14T01:36:36.143Z,996.62
2017-09-14T01:37:45.235Z,996.62
2017-09-14T01:38:54.074Z,996.63
2017-09-14T01:40:02.917Z,996.65
2017-09-14T01:41:11.759Z,996.67
2017-09-14T01:42:20.602Z,996.65
2017-09-14T01:43:29.591Z,996.7
2017-09-14T01:44:38.429Z,996.69
2017-09-14T01:45:47.272Z,996.7
2017-09-14T01:46:56.113Z,996.7
2017-09-14T01:48:04.954Z,996.66
2017-09-14T01:49:14.185Z,996.68
2017-09-14T01:50:23.027Z,996.73
2017-09-14T01:51:31.869Z,996.69
2017-09-14T01:52:40.716Z,996.69
2017-09-14T01:53:49.558Z,996.73
2017-09-14T01:54:58.707Z,996.74
2017-09-14T01:56:07.552Z,996.71
2017-09-14T01:57:16.396Z,996.75
2017-09-14T01:58:25.566Z,996.72
2017-09-14T01:59:34.408Z,996.66
2017-09-14T02:00:43.300Z,996.6
2017-09-14T02:01:52.140Z,996.65
2017-09-14T02:03:00.984Z,996.64
2017-09-14T02:04:09.826Z,996.62
2017-09-14T02:05:18.672Z,996.59
2017-09-14T02:06:27.668Z,996.6
2017-09-14T02:07:36.514Z,996.61
2017-09-14T02:08:45.359Z,996.59
2017-09-14T02:09:54.202Z,996.58
2017-09-14T02:11:03.045Z,996.52
2017-09-14T02:12:11.890Z,996.52
2017-09-14T02:13:20.735Z,996.52
2017-09-14T02:14:29.578Z,996.52
2017-09-14T02:15:38.422Z,996.54
2017-09-14T02:16:47.265Z,996.54
2017-09-14T02:17:56.513Z,996.47
2017-09-14T02:19:05.353Z,996.49
2017-09-14T02:20:14.196Z,996.54
2017-09-14T02:21:23.040Z,996.55
2017-09-14T02:22:31.884Z,996.48
2017-09-14T02:23:40.877Z,996.5
2017-09-14T02:24:49.719Z,996.5
2017-09-14T02:25:58.563Z,996.49
2017-09-14T02:27:07.406Z,996.53
2017-09-14T02:28:16.249Z,996.55
2017-09-14T02:29:25.242Z,996.54
2017-09-14T02:30:34.087Z,996.57
2017-09-14T02:31:42.931Z,996.54
2017-09-14T02:32:51.773Z,996.56
2017-09-14T02:34:00.613Z,996.57
2017-09-14T02:35:09.504Z,996.49
2017-09-14T02:36:18.346Z,996.54
2017-09-14T02:37:27.185Z,996.49
2017-09-14T02:38:36.028Z,996.54
2017-09-14T02:39:44.870Z,996.52
2017-09-14T02:40:53.761Z,996.48
2017-09-14T02:42:02.606Z,996.49
2017-09-14T02:43:11.446Z,996.48
2017-09-14T02:44:20.288Z,996.51
2017-09-14T02:45:29.129Z,996.5
2017-09-14T02:46:38.121Z,996.53
2017-09-14T02:47:46.963Z,996.52
2017-09-14T02:48:55.804Z,996.51
2017-09-14T02:50:04.649Z,996.53
2017-09-14T02:51:13.489Z,996.47
2017-09-14T02:52:22.480Z,996.56
2017-09-14T02:53:31.322Z,996.57
2017-09-14T02:54:40.165Z,996.53
2017-09-14T02:55:49.005Z,996.6
2017-09-14T02:56:57.851Z,996.62
2017-09-14T02:58:06.845Z,996.62
2017-09-14T02:59:15.693Z,996.59
2017-09-14T03:00:24.537Z,996.6
2017-09-14T03:01:33.380Z,996.58
2017-09-14T03:02:42.231Z,996.54
2017-09-14T03:03:51.363Z,996.61
2017-09-14T03:05:00.207Z,996.6
2017-09-14T03:06:09.049Z,996.58
2017-09-14T03:07:17.893Z,996.67
2017-09-14T03:08:26.735Z,996.66
2017-09-14T03:09:35.778Z,996.67
2017-09-14T03:10:44.619Z,996.66
2017-09-14T03:11:53.461Z,996.7
2017-09-14T03:13:02.303Z,996.66
2017-09-14T03:14:11.145Z,996.71
2017-09-14T03:15:19.991Z,996.75
2017-09-14T03:16:28.835Z,996.73
2017-09-14T03:17:37.679Z,996.78
2017-09-14T03:18:46.520Z,996.74
2017-09-14T03:19:55.364Z,996.73
2017-09-14T03:21:04.258Z,996.74
2017-09-14T03:22:13.102Z,996.82
2017-09-14T03:23:21.944Z,996.75
2017-09-14T03:24:30.789Z,996.76
2017-09-14T03:25:39.630Z,996.78
2017-09-14T03:26:48.824Z,996.75
2017-09-14T03:27:57.669Z,996.71
2017-09-14T03:29:06.514Z,996.72
2017-09-14T03:30:15.356Z,996.72
2017-09-14T03:31:24.202Z,996.76
2017-09-14T03:32:33.044Z,996.75
2017-09-14T03:33:41.886Z,996.75
2017-09-14T03:34:50.730Z,996.73
2017-09-14T03:35:59.570Z,996.79
2017-09-14T03:37:08.414Z,996.75
2017-09-14T03:38:17.412Z,996.75
2017-09-14T03:39:26.255Z,996.77
2017-09-14T03:40:35.099Z,996.74
2017-09-14T03:41:43.944Z,996.73
2017-09-14T03:42:52.788Z,996.78
2017-09-14T03:44:01.681Z,996.78
2017-09-14T03:45:10.525Z,996.74
2017-09-14T03:46:19.368Z,996.67
2017-09-14T03:47:28.212Z,996.66
2017-09-14T03:48:37.056Z,996.63
2017-09-14T03:49:46.000Z,996.66
2017-09-14T03:50:54.840Z,996.7
2017-09-14T03:52:03.682Z,996.68
2017-09-14T03:53:12.525Z,996.65
2017-09-14T03:54:21.369Z,996.63
2017-09-14T03:55:30.213Z,996.72
2017-09-14T03:56:39.057Z,996.65
2017-09-14T03:57:47.901Z,996.7
2017-09-14T03:58:56.746Z,996.73
2017-09-14T04:00:05.590Z,996.68
2017-09-14T04:01:14.581Z,996.64
2017-09-14T04:02:23.423Z,996.64
2017-09-14T04:03:32.265Z,996.68
2017-09-14T04:04:41.110Z,996.63
2017-09-14T04:05:49.950Z,996.68
2017-09-14T04:06:59.042Z,996.65
2017-09-14T04:08:07.885Z,996.72
2017-09-14T04:09:16.724Z,996.71
2017-09-14T04:10:25.568Z,996.68
2017-09-14T04:11:34.411Z,996.68
2017-09-14T04:12:43.263Z,996.7
2017-09-14T04:13:52.100Z,996.7
2017-09-14T04:15:00.943Z,996.68
2017-09-14T04:16:09.787Z,996.7
2017-09-14T04:17:18.635Z,996.68
2017-09-14T04:18:28.113Z,996.69
2017-09-14T04:19:36.957Z,996.73
2017-09-14T04:20:46.128Z,996.66
2017-09-14T04:21:54.968Z,996.72
2017-09-14T04:23:04.164Z,996.74
2017-09-14T04:24:13.155Z,996.71
2017-09-14T04:25:21.997Z,996.7
2017-09-14T04:26:30.838Z,996.69
2017-09-14T04:27:39.680Z,996.74
2017-09-14T04:28:48.524Z,996.71
2017-09-14T04:29:57.368Z,996.72
2017-09-14T04:31:06.207Z,996.77
2017-09-14T04:32:15.050Z,996.74
2017-09-14T04:33:23.890Z,996.71
2017-09-14T04:34:32.731Z,996.73
2017-09-14T04:35:41.575Z,996.77
2017-09-14T04:36:50.415Z,996.76
2017-09-14T04:37:59.258Z,996.78
2017-09-14T04:39:08.099Z,996.78
2017-09-14T04:40:16.940Z,996.76
2017-09-14T04:41:25.830Z,996.77
2017-09-14T04:42:34.673Z,996.79
2017-09-14T04:43:43.515Z,996.74
2017-09-14T04:44:52.358Z,996.78
2017-09-14T04:46:01.200Z,996.79
2017-09-14T04:47:10.192Z,996.8
2017-09-14T04:48:19.033Z,996.79
2017-09-14T04:49:27.874Z,996.76
2017-09-14T04:50:36.717Z,996.74
2017-09-14T04:51:45.559Z,996.73
2017-09-14T04:52:54.801Z,996.71
2017-09-14T04:54:03.640Z,996.7
2017-09-14T04:55:12.480Z,996.76
2017-09-14T04:56:21.322Z,996.73
2017-09-14T04:57:30.164Z,996.73
2017-09-14T04:58:39.053Z,996.72
2017-09-14T04:59:47.895Z,996.71
2017-09-14T05:00:56.738Z,996.74
2017-09-14T05:02:05.577Z,996.72
2017-09-14T05:03:14.420Z,996.68
2017-09-14T05:04:23.413Z,996.71
2017-09-14T05:05:32.262Z,996.69
2017-09-14T05:06:41.102Z,996.72
2017-09-14T05:07:50.281Z,996.7
2017-09-14T05:08:59.129Z,996.66
2017-09-14T05:10:08.700Z,996.72
2017-09-14T05:11:17.877Z,996.66
2017-09-14T05:12:26.720Z,996.69
2017-09-14T05:13:35.565Z,996.69
2017-09-14T05:14:44.407Z,996.69
2017-09-14T05:15:53.347Z,996.66
2017-09-14T05:17:02.190Z,996.68
2017-09-14T05:18:11.031Z,996.68
2017-09-14T05:19:19.874Z,996.7
2017-09-14T05:20:28.716Z,996.69
2017-09-14T05:21:37.709Z,996.69
2017-09-14T05:22:46.551Z,996.7
2017-09-14T05:23:55.394Z,996.73
2017-09-14T05:25:04.237Z,996.76
2017-09-14T05:26:13.078Z,996.67
2017-09-14T05:27:22.070Z,996.69
2017-09-14T05:28:30.912Z,996.74
2017-09-14T05:29:39.757Z,996.75
2017-09-14T05:30:48.600Z,996.72
2017-09-14T05:31:57.443Z,996.77
2017-09-14T05:33:06.436Z,996.72
2017-09-14T05:34:15.281Z,996.75
2017-09-14T05:35:24.129Z,996.78
2017-09-14T05:36:32.972Z,996.71
2017-09-14T05:37:42.146Z,996.72
2017-09-14T05:38:50.989Z,996.72
2017-09-14T05:39:59.832Z,996.72
2017-09-14T05:41:08.673Z,996.71
2017-09-14T05:42:17.521Z,996.7
2017-09-14T05:43:26.366Z,996.7
2017-09-14T05:44:35.359Z,996.68
2017-09-14T05:45:44.206Z,996.67
2017-09-14T05:46:53.050Z,996.73
2017-09-14T05:48:01.890Z,996.69
2017-09-14T05:49:10.733Z,996.65
2017-09-14T05:50:19.579Z,996.66
2017-09-14T05:51:28.422Z,996.58
2017-09-14T05:52:37.265Z,996.56
2017-09-14T05:53:46.106Z,996.61
2017-09-14T05:54:54.950Z,996.61
2017-09-14T05:56:03.793Z,996.53
2017-09-14T05:57:12.636Z,996.51
2017-09-14T05:58:21.480Z,996.48
2017-09-14T05:59:30.324Z,996.49
2017-09-14T06:00:39.170Z,996.48
2017-09-14T06:01:48.062Z,996.44
2017-09-14T06:02:56.905Z,996.49
2017-09-14T06:04:05.744Z,996.51
2017-09-14T06:05:14.588Z,996.49
2017-09-14T06:06:23.430Z,996.53
2017-09-14T06:07:32.324Z,996.5
2017-09-14T06:08:41.192Z,996.52
2017-09-14T06:09:50.005Z,996.5
2017-09-14T06:10:58.847Z,996.53
2017-09-14T06:12:07.690Z,996.56
2017-09-14T06:13:16.685Z,996.51
2017-09-14T06:14:25.523Z,996.54
2017-09-14T06:15:34.706Z,996.49
2017-09-14T06:16:43.550Z,996.48
2017-09-14T06:17:52.395Z,996.48
2017-09-14T06:19:01.240Z,996.47
2017-09-14T06:20:10.078Z,996.48
2017-09-14T06:21:18.921Z,996.48
2017-09-14T06:22:27.771Z,996.5
2017-09-14T06:23:36.609Z,996.46
2017-09-14T06:24:45.833Z,996.47
2017-09-14T06:25:54.675Z,996.42
2017-09-14T06:27:03.517Z,996.5
2017-09-14T06:28:12.361Z,996.47
2017-09-14T06:29:21.203Z,996.5
2017-09-14T06:30:30.530Z,996.49
2017-09-14T06:31:39.375Z,996.52
2017-09-14T06:32:48.218Z,996.52
2017-09-14T06:33:57.064Z,996.54
2017-09-14T06:35:06.285Z,996.52
2017-09-14T06:36:15.178Z,996.54
2017-09-14T06:37:24.022Z,996.6
2017-09-14T06:38:32.866Z,996.57
2017-09-14T06:39:41.711Z,996.59
2017-09-14T06:40:50.556Z,996.62
2017-09-14T06:41:59.702Z,996.58
2017-09-14T06:43:08.546Z,996.59
2017-09-14T06:44:17.389Z,996.61
2017-09-14T06:45:26.233Z,996.67
2017-09-14T06:46:35.410Z,996.68
2017-09-14T06:47:44.404Z,996.68
2017-09-14T06:48:53.591Z,996.73
2017-09-14T06:50:02.769Z,996.71
2017-09-14T06:51:11.612Z,996.72
2017-09-14T06:52:20.454Z,996.74
2017-09-14T06:53:29.305Z,996.73
2017-09-14T06:54:38.140Z,996.72
2017-09-14T06:55:46.986Z,996.72
2017-09-14T06:56:55.830Z,996.71
2017-09-14T06:58:04.673Z,996.75
2017-09-14T06:59:13.668Z,996.8
2017-09-14T07:00:22.515Z,996.72
2017-09-14T07:01:31.365Z,996.73
2017-09-14T07:02:40.207Z,996.68
2017-09-14T07:03:49.053Z,996.71
2017-09-14T07:04:58.146Z,996.63
2017-09-14T07:06:06.988Z,996.66
2017-09-14T07:07:15.829Z,996.71
2017-09-14T07:08:24.670Z,996.62
2017-09-14T07:09:33.514Z,996.72
2017-09-14T07:10:42.407Z,996.71
2017-09-14T07:11:51.582Z,996.82
2017-09-14T07:13:00.429Z,996.82
2017-09-14T07:14:09.281Z,996.88
2017-09-14T07:15:18.127Z,996.83
2017-09-14T07:16:27.071Z,996.77
2017-09-14T07:17:35.916Z,996.86
2017-09-14T07:18:44.761Z,996.91
2017-09-14T07:19:53.606Z,996.85
2017-09-14T07:21:02.450Z,996.9
2017-09-14T07:22:11.644Z,996.91
2017-09-14T07:23:20.486Z,996.89
2017-09-14T07:24:29.344Z,996.93
2017-09-14T07:25:38.187Z,997.02
2017-09-14T07:26:47.030Z,997.03
2017-09-14T07:27:55.974Z,997.03
2017-09-14T07:29:04.816Z,997.06
2017-09-14T07:30:13.660Z,997.04
2017-09-14T07:31:22.510Z,997.01
2017-09-14T07:32:31.683Z,997.1
2017-09-14T07:33:40.576Z,997.01
2017-09-14T07:34:49.419Z,997.02
2017-09-14T07:35:58.260Z,996.96
2017-09-14T07:37:07.101Z,997.06
2017-09-14T07:38:15.946Z,996.99
2017-09-14T07:39:24.935Z,997.2
2017-09-14T07:40:33.781Z,997.03
2017-09-14T07:41:42.629Z,997.03
2017-09-14T07:42:51.476Z,997.08
2017-09-14T07:44:00.321Z,997.02
2017-09-14T07:45:09.216Z,997.07
2017-09-14T07:46:18.060Z,997.02
2017-09-14T07:47:26.909Z,997.01
2017-09-14T07:48:35.754Z,997.02
2017-09-14T07:49:44.598Z,997.02
2017-09-14T07:50:53.591Z,997.03
2017-09-14T07:52:02.436Z,997.01
2017-09-14T07:53:11.282Z,997.07
2017-09-14T07:54:20.127Z,997.02
2017-09-14T07:55:28.970Z,996.95
2017-09-14T07:56:37.863Z,996.96
2017-09-14T07:57:46.705Z,996.96
2017-09-14T07:58:55.550Z,996.95
2017-09-14T08:00:04.396Z,997.01
2017-09-14T08:01:13.241Z,996.99
2017-09-14T08:02:22.569Z,996.99
2017-09-14T08:03:31.410Z,996.98
2017-09-14T08:04:40.256Z,996.98
2017-09-14T08:05:49.103Z,997
2017-09-14T08:06:57.966Z,996.93
2017-09-14T08:08:06.812Z,996.98
2017-09-14T08:09:15.657Z,997
2017-09-14T08:10:24.500Z,997.01
2017-09-14T08:11:33.344Z,997.01
2017-09-14T08:12:42.188Z,996.97
2017-09-14T08:13:51.085Z,997.02
2017-09-14T08:14:59.929Z,997.07
2017-09-14T08:16:08.774Z,997.02
2017-09-14T08:17:17.619Z,996.97
2017-09-14T08:18:26.464Z,997
2017-09-14T08:19:35.358Z,997.05
2017-09-14T08:20:44.201Z,997.07
2017-09-14T08:21:53.045Z,997.1
2017-09-14T08:23:01.889Z,997.1
2017-09-14T08:24:10.733Z,997.21
2017-09-14T08:25:19.829Z,997.08
2017-09-14T08:26:28.674Z,997.1
2017-09-14T08:27:37.519Z,997.12
2017-09-14T08:28:46.366Z,997.24
2017-09-14T08:29:55.209Z,997.22
2017-09-14T08:31:04.303Z,997.18
2017-09-14T08:32:13.147Z,997.16
2017-09-14T08:33:21.991Z,997.16
2017-09-14T08:34:30.843Z,997.15
2017-09-14T08:35:39.683Z,997.14
2017-09-14T08:36:48.690Z,997.2
2017-09-14T08:37:57.535Z,997.22
2017-09-14T08:39:06.385Z,997.14
2017-09-14T08:40:15.227Z,997.2
2017-09-14T08:41:24.071Z,997.23
2017-09-14T08:42:33.066Z,997.24
2017-09-14T08:43:41.911Z,997.22
2017-09-14T08:44:50.757Z,997.19
2017-09-14T08:45:59.600Z,997.24
2017-09-14T08:47:08.445Z,997.21
2017-09-14T08:48:17.442Z,997.24
2017-09-14T08:49:26.325Z,997.24
2017-09-14T08:50:35.174Z,997.43
2017-09-14T08:51:44.028Z,997.29
2017-09-14T08:52:52.876Z,997.27
2017-09-14T08:54:02.206Z,997.3
2017-09-14T08:55:11.054Z,997.31
2017-09-14T08:56:19.899Z,997.34
2017-09-14T08:57:28.748Z,997.39
2017-09-14T08:58:38.258Z,997.33
2017-09-14T08:59:47.353Z,997.36
2017-09-14T09:00:56.198Z,997.37
2017-09-14T09:02:05.044Z,997.32
2017-09-14T09:03:13.888Z,997.29
2017-09-14T09:04:22.734Z,997.35
2017-09-14T09:05:31.880Z,997.38
2017-09-14T09:06:40.730Z,997.26
2017-09-14T09:07:49.569Z,997.32
2017-09-14T09:08:58.414Z,997.24
2017-09-14T09:10:07.261Z,997.33
2017-09-14T09:11:16.156Z,997.31
2017-09-14T09:12:25.001Z,997.33
2017-09-14T09:13:33.854Z,997.33
2017-09-14T09:14:42.692Z,997.35
2017-09-14T09:15:51.637Z,997.33
2017-09-14T09:17:00.630Z,997.39
2017-09-14T09:18:09.473Z,997.35
2017-09-14T09:19:18.321Z,997.25
2017-09-14T09:20:27.174Z,997.34
2017-09-14T09:21:36.014Z,997.26
2017-09-14T09:22:45.161Z,997.26
2017-09-14T09:23:54.008Z,997.26
2017-09-14T09:25:02.860Z,997.29
2017-09-14T09:26:12.037Z,997.23
2017-09-14T09:27:20.881Z,997.31
2017-09-14T09:28:29.877Z,997.24
2017-09-14T09:29:38.721Z,997.21
2017-09-14T09:30:47.566Z,997.15
2017-09-14T09:31:56.413Z,997.31
2017-09-14T09:33:05.310Z,997.19
2017-09-14T09:34:14.256Z,997.18
2017-09-14T09:35:23.106Z,997.32
2017-09-14T09:36:31.952Z,997.27
2017-09-14T09:37:40.798Z,997.23
2017-09-14T09:38:49.644Z,997.34
2017-09-14T09:39:58.808Z,997.35
2017-09-14T09:41:07.638Z,997.4
2017-09-14T09:42:16.479Z,997.28
2017-09-14T09:43:25.326Z,997.4
2017-09-14T09:44:34.225Z,997.46
2017-09-14T09:45:43.222Z,997.39
2017-09-14T09:46:52.066Z,997.33
2017-09-14T09:48:00.914Z,997.32
2017-09-14T09:49:09.763Z,997.35
2017-09-14T09:50:18.612Z,997.48
2017-09-14T09:51:27.860Z,997.37
2017-09-14T09:52:36.704Z,997.34
2017-09-14T09:53:45.552Z,997.31
2017-09-14T09:54:54.400Z,997.42
2017-09-14T09:56:03.248Z,997.36
2017-09-14T09:57:12.399Z,997.41
2017-09-14T09:58:21.245Z,997.43
2017-09-14T09:59:30.090Z,997.43
2017-09-14T10:00:39.269Z,997.46
2017-09-14T10:01:48.116Z,997.57
2017-09-14T10:02:57.064Z,997.43
2017-09-14T10:04:05.913Z,997.56
2017-09-14T10:05:14.762Z,997.57
2017-09-14T10:06:23.613Z,997.5
2017-09-14T10:07:32.457Z,997.45
2017-09-14T10:08:41.453Z,997.48
2017-09-14T10:09:50.296Z,997.5
2017-09-14T10:10:59.149Z,997.43
2017-09-14T10:12:08.010Z,997.51
2017-09-14T10:13:16.859Z,997.49
2017-09-14T10:14:25.705Z,997.51
2017-09-14T10:15:34.597Z,997.47
2017-09-14T10:16:43.444Z,997.45
2017-09-14T10:17:52.292Z,997.49
2017-09-14T10:19:01.486Z,997.44
2017-09-14T10:20:10.686Z,997.52
2017-09-14T10:21:19.861Z,997.56
2017-09-14T10:22:28.705Z,997.56
2017-09-14T10:23:37.548Z,997.64
2017-09-14T10:24:46.397Z,997.58
2017-09-14T10:25:55.390Z,997.53
2017-09-14T10:27:04.238Z,997.64
2017-09-14T10:28:13.085Z,997.56
2017-09-14T10:29:21.930Z,997.66
2017-09-14T10:30:31.113Z,997.64
2017-09-14T10:31:39.956Z,997.59
2017-09-14T10:32:49.172Z,997.59
2017-09-14T10:33:58.018Z,997.62
2017-09-14T10:35:06.867Z,997.65
2017-09-14T10:36:15.707Z,997.6
2017-09-14T10:37:24.942Z,997.51
2017-09-14T10:38:33.787Z,997.54
2017-09-14T10:39:42.633Z,997.49
2017-09-14T10:40:51.480Z,997.53
2017-09-14T10:42:00.324Z,997.63
2017-09-14T10:43:09.421Z,997.6
2017-09-14T10:44:18.605Z,997.54
2017-09-14T10:45:27.791Z,997.63
2017-09-14T10:46:36.638Z,997.56
2017-09-14T10:47:45.484Z,997.53
2017-09-14T10:48:54.378Z,997.59
2017-09-14T10:50:03.556Z,997.55
2017-09-14T10:51:12.401Z,997.6
2017-09-14T10:52:21.249Z,997.61
2017-09-14T10:53:30.098Z,997.6
2017-09-14T10:54:39.574Z,997.63
2017-09-14T10:55:48.422Z,997.66
2017-09-14T10:56:57.268Z,997.64
2017-09-14T10:58:06.112Z,997.63
2017-09-14T10:59:14.961Z,997.63
2017-09-14T11:00:23.909Z,997.62
2017-09-14T11:01:32.755Z,997.67
2017-09-14T11:02:41.602Z,997.65
2017-09-14T11:03:50.446Z,997.66
2017-09-14T11:04:59.296Z,997.72
2017-09-14T11:06:08.143Z,997.7
2017-09-14T11:07:16.988Z,997.76
2017-09-14T11:08:25.832Z,997.73
2017-09-14T11:09:34.677Z,997.79
2017-09-14T11:10:43.525Z,997.79
2017-09-14T11:11:52.523Z,997.6
2017-09-14T11:13:01.370Z,997.72
2017-09-14T11:14:10.217Z,997.71
2017-09-14T11:15:19.063Z,997.74
2017-09-14T11:16:27.912Z,997.77
2017-09-14T11:17:36.910Z,997.77
2017-09-14T11:18:45.756Z,997.79
2017-09-14T11:19:54.605Z,997.76
2017-09-14T11:21:03.452Z,997.78
2017-09-14T11:22:12.300Z,997.83
2017-09-14T11:23:21.252Z,997.87
2017-09-14T11:24:30.096Z,997.84
2017-09-14T11:25:38.943Z,997.82
2017-09-14T11:26:48.121Z,997.85
2017-09-14T11:27:56.967Z,997.88
2017-09-14T11:29:05.970Z,997.93
2017-09-14T11:30:14.812Z,997.92
2017-09-14T11:31:23.897Z,997.89
2017-09-14T11:32:32.743Z,998.05
2017-09-14T11:33:41.591Z,997.99
2017-09-14T11:34:50.439Z,998.01
2017-09-14T11:35:59.287Z,998.05
2017-09-14T11:37:08.133Z,997.91
2017-09-14T11:38:16.979Z,997.94
2017-09-14T11:39:25.879Z,998.04
2017-09-14T11:40:34.726Z,997.97
2017-09-14T11:41:43.574Z,997.97
2017-09-14T11:42:52.420Z,997.91
2017-09-14T11:44:01.268Z,997.98
2017-09-14T11:45:10.116Z,997.99
2017-09-14T11:46:18.977Z,998.03
2017-09-14T11:47:28.633Z,998.06
2017-09-14T11:48:37.491Z,998.12
2017-09-14T11:49:46.338Z,997.97
2017-09-14T11:50:55.183Z,997.97
2017-09-14T11:52:04.032Z,997.97
2017-09-14T11:53:12.880Z,998.03
2017-09-14T11:54:21.728Z,998.12
2017-09-14T11:55:30.575Z,998.12
2017-09-14T11:56:39.423Z,998.07
2017-09-14T11:57:48.273Z,998.07
2017-09-14T11:58:57.121Z,998.04
2017-09-14T12:00:06.274Z,997.97
2017-09-14T12:01:15.124Z,997.97
2017-09-14T12:02:23.971Z,997.93
2017-09-14T12:03:32.837Z,997.94
2017-09-14T12:04:41.684Z,997.92
2017-09-14T12:05:50.633Z,997.96
2017-09-14T12:06:59.483Z,997.99
2017-09-14T12:08:08.333Z,997.97
2017-09-14T12:09:17.182Z,997.88
2017-09-14T12:10:26.033Z,998.02
2017-09-14T12:11:34.935Z,998.02
2017-09-14T12:12:43.779Z,998.05
2017-09-14T12:13:52.628Z,998.07
2017-09-14T12:15:01.477Z,998.07
2017-09-14T12:16:10.332Z,998.07
2017-09-14T12:17:19.330Z,998.12
2017-09-14T12:18:28.178Z,997.99
2017-09-14T12:19:37.050Z,998
2017-09-14T12:20:45.875Z,997.94
2017-09-14T12:21:54.721Z,997.99
2017-09-14T12:23:03.618Z,997.93
2017-09-14T12:24:12.468Z,997.99
2017-09-14T12:25:21.324Z,998.01
2017-09-14T12:26:30.504Z,998.1
2017-09-14T12:27:39.351Z,998.14
2017-09-14T12:28:48.295Z,998.05
2017-09-14T12:29:57.141Z,998.1
2017-09-14T12:31:05.995Z,998.23
2017-09-14T12:32:15.169Z,998.14
2017-09-14T12:33:24.016Z,998.16
2017-09-14T12:34:33.296Z,998.14
2017-09-14T12:35:42.143Z,998.16
2017-09-14T12:36:50.987Z,998.11
2017-09-14T12:37:59.839Z,998.13
2017-09-14T12:39:08.683Z,998.17
2017-09-14T12:40:17.628Z,998.19
2017-09-14T12:41:26.473Z,998.28
2017-09-14T12:42:35.325Z,998.31
2017-09-14T12:43:44.167Z,998.29
2017-09-14T12:44:53.016Z,998.28
2017-09-14T12:46:01.916Z,998.29
2017-09-14T12:47:10.763Z,998.25
2017-09-14T12:48:19.610Z,998.25
2017-09-14T12:49:28.459Z,998.27
2017-09-14T12:50:37.307Z,998.21
2017-09-14T12:51:46.305Z,998.21
2017-09-14T12:52:55.153Z,998.17
2017-09-14T12:54:04.104Z,998.19
2017-09-14T12:55:12.950Z,998.12
2017-09-14T12:56:22.179Z,998.23
2017-09-14T12:57:31.075Z,998.21
2017-09-14T12:58:39.924Z,998.27
2017-09-14T12:59:48.774Z,998.14
2017-09-14T13:00:57.770Z,998.18
2017-09-14T13:02:06.618Z,998.13
2017-09-14T13:03:15.767Z,998.21
2017-09-14T13:04:24.617Z,998.23
2017-09-14T13:05:33.463Z,998.2
2017-09-14T13:06:42.308Z,998.19
2017-09-14T13:07:51.155Z,998.21
2017-09-14T13:09:00.152Z,998.2
2017-09-14T13:10:08.998Z,998.23
2017-09-14T13:11:17.868Z,998.29
2017-09-14T13:12:26.694Z,998.32
2017-09-14T13:13:35.874Z,998.28
2017-09-14T13:14:44.869Z,998.29
2017-09-14T13:15:54.063Z,998.34
2017-09-14T13:17:02.917Z,998.32
2017-09-14T13:18:12.097Z,998.41
2017-09-14T13:19:20.943Z,998.48
2017-09-14T13:20:29.891Z,998.59
2017-09-14T13:21:38.737Z,998.64
2017-09-14T13:22:47.584Z,998.79
2017-09-14T13:23:56.429Z,998.76
2017-09-14T13:25:05.276Z,998.88
2017-09-14T13:26:14.122Z,999.05
2017-09-14T13:27:22.970Z,999.31
2017-09-14T13:28:31.812Z,999.09
2017-09-14T13:29:40.658Z,999.14
2017-09-14T13:30:49.503Z,999.23
2017-09-14T13:31:58.398Z,999.28
2017-09-14T13:33:07.247Z,999.26
2017-09-14T13:34:16.094Z,999.22
2017-09-14T13:35:24.939Z,999.19
2017-09-14T13:36:33.783Z,999.15
2017-09-14T13:37:42.777Z,999.18
2017-09-14T13:38:51.622Z,999.11
2017-09-14T13:40:00.471Z,999.1
2017-09-14T13:41:09.323Z,999.02
2017-09-14T13:42:18.176Z,999.01
2017-09-14T13:43:27.608Z,999.04
2017-09-14T13:44:36.450Z,999.02
2017-09-14T13:45:45.295Z,999.02
2017-09-14T13:46:54.139Z,998.98
2017-09-14T13:48:02.983Z,998.97
2017-09-14T13:49:11.877Z,998.94
2017-09-14T13:50:20.722Z,998.91
2017-09-14T13:51:29.573Z,998.96
2017-09-14T13:52:38.421Z,998.97
2017-09-14T13:53:47.265Z,999.05
2017-09-14T13:54:56.270Z,999.02
2017-09-14T13:56:05.119Z,999.06
2017-09-14T13:57:13.970Z,998.99
2017-09-14T13:58:22.814Z,999
2017-09-14T13:59:31.657Z,999
2017-09-14T14:00:40.901Z,998.99
2017-09-14T14:01:49.748Z,998.99
2017-09-14T14:02:58.592Z,998.91
2017-09-14T14:04:07.455Z,998.94
2017-09-14T14:05:16.280Z,998.87
2017-09-14T14:06:25.292Z,998.89
2017-09-14T14:07:34.155Z,998.85
2017-09-14T14:08:43.001Z,998.83
2017-09-14T14:09:51.850Z,998.89
2017-09-14T14:11:00.709Z,998.88
2017-09-14T14:12:09.613Z,998.89
2017-09-14T14:13:18.464Z,998.88
2017-09-14T14:14:27.347Z,998.94
2017-09-14T14:15:36.192Z,998.95
2017-09-14T14:16:45.201Z,998.93
2017-09-14T14:17:54.146Z,998.93
2017-09-14T14:19:02.996Z,998.91
2017-09-14T14:20:11.849Z,998.96
2017-09-14T14:21:20.709Z,998.95
2017-09-14T14:22:29.570Z,998.99